Budapest

METAR
SPECI

METAR LHBP 241600Z 34008KT CAVOK 26/15 Q1022 NOSIG=

METAR LHBP 241530Z 35009KT CAVOK 26/15 Q1022 NOSIG=

METAR LHBP 241500Z 35010KT 310V020 CAVOK 27/15 Q1022 NOSIG=

METAR LHBP 241430Z 35009KT 320V040 CAVOK 27/15 Q1022 NOSIG=

METAR LHBP 241400Z 35010KT 330V030 CAVOK 27/14 Q1023 NOSIG=

METAR LHBP 241330Z 36009KT 320V040 CAVOK 26/14 Q1023 NOSIG=

METAR LHBP 241300Z 35009KT 320V020 CAVOK 26/14 Q1023 NOSIG=


TAF

TAF LHBP 241100Z 2412/2512 02008KT CAVOK BECMG 2506/2508 06009KT=

METARRepülőterek meteorológiai tényadatai félóránkéntSAHU31
SAHU41
SPECIKülönleges időjárás-jelentő táviratSPHU31
SPHU85
TAFRepülőterek legfrissebb meteorológiai előrejelzéseFTHU31
FCHU41

GAMET

FAHU41 LHBM 241100
LHCC GAMET VALID 241200/241800 LHBP-
BUDAPEST FIR BLW FL100


SECN 1
HAZARDOUS WX NIL=

GAMETTerületi előrejelzés, FL100 (~3000 m) alatti veszélyes időjárási jelenségekrőlFAHU41
OMSZ: 2016. augusztus 24. 12:44 (10:44  UTC)  [FAHU41]
AIRMET

Nincs érvényes távirat 

WAHU41 LHBM 111445
LHCC AIRMET 01 VALID 111445/111800 LHBP-
LHCC BUDAPEST FIR ISOL TS OBS WI N4802 E01919 - N4721 E02021
- N4827 E02135 - N4802 E01919 TOP FL270 STNR WKN=
OMSZ:  [WAHU41]
AIRMETRiasztás a kisgépes repülés számára veszélyes időjárási jelenség miatt (talajszint és FL100 közötti légtérre)WAHU41
SIGMET

Nincs érvényes távirat 

WSHU31 LHBM 231845
LHCC SIGMET 02 VALID 231850/232150 LHBP-
LHCC BUDAPEST FIR SEV TURB FCST WI N4600 E01900 - N4742
E02043 - N4741 E02211 - N4609 E02019 - N4600 E01900
FL260/340 MOV S WKN=
OMSZ:  [WSHU31]
SIGMETRiasztás, a repülésre különösen veszélyes időjárási jelenség miatt (talajszint és FL450 közötti légtérre)WSHU31
SIGMET
Vulkáni
hamufelhő

Nincs érvényes távirat 

WVHU31 LHBM 271515 CCA
LHCC SIGMET 03 VALID 271515/271800 LHBP-
LHCC BUDAPEST FIR EXERCISE VOLCEX12/01
CNL VA SIGMET 02 271200/271800
EXERCISE EXERCISE EXERCISE VOLCEX12/01=
OMSZ:  [WVHU31]
SIGMET
Vulkáni
hamufelhő
Riasztás, a repülésre különösen veszélyes vulkáni tevékenység miattWVHU31